Overview Statistics Trail Chart Weather Telemetry Raw packets
 

This is the latest recevied weather packets stored in our database for station/object W0CHP-13. If no packets are shown the sender has not sent any weather packets the latest 10 day(s).

<< 53 54 55 56 57 58 >>
Time Temp. Humidity Pressure Rain* Wind** Luminosity Snow
1787880196 22.22° C 68% 1015.4 hPa 0 mm - 0 W/m² -
1787879598 22.22° C 69% 1015.4 hPa 0 mm - 0 W/m² -
1787878997 22.78° C 69% 1015.4 hPa 0 mm - 1 W/m² -
1787878395 23.33° C 68% 1015.4 hPa 0 mm - 2 W/m² -
1787877798 23.89° C 60% 1015.4 hPa 0 mm - 6 W/m² -
1787877197 24.44° C 56% 1015.4 hPa 0 mm - 11 W/m² -
1787876596 25° C 51% 1015.4 hPa 0 mm - 18 W/m² -
1787875998 25.56° C 49% 1015.4 hPa 0 mm - 27 W/m² -
1787875396 25.56° C 49% 1015.4 hPa 0 mm - 36 W/m² -
1787874799 25.56° C 45% 1015.4 hPa 0 mm - 41 W/m² -
1787874196 26.11° C 45% 1015.4 hPa 0 mm - 48 W/m² -
1787873595 26.11° C 44% 1015.4 hPa 0 mm - 64 W/m² -
1787872997 26.11° C 45% 1015.4 hPa 0 mm - 51 W/m² -
1787872395 26.67° C 44% 1015.4 hPa 0 mm - 52 W/m² -
1787871795 26.67° C 44% 1015.8 hPa 0 mm - 108 W/m² -
1787871196 26.67° C 43% 1015.4 hPa 0 mm - 69 W/m² -
1787870598 27.22° C 41% 1015.4 hPa 0 mm - 76 W/m² -
1787869997 27.22° C 40% 1015.4 hPa 0 mm - 194 W/m² -
1787869396 27.78° C 39% 1015.4 hPa 0 mm - 222 W/m² -
1787868797 27.78° C 39% 1015.4 hPa 0 mm - 268 W/m² -
1787868196 27.78° C 39% 1015.5 hPa 0 mm - 299 W/m² -
1787867598 28.33° C 39% 1015.4 hPa 0 mm - 332 W/m² -
1787866997 28.33° C 38% 1015.7 hPa 0 mm - 362 W/m² -
1787866398 27.78° C 40% 1015.7 hPa 0 mm - 391 W/m² -
1787865796 26.67° C 42% 1015.8 hPa 0 mm - 232 W/m² -

* Rain latest hour (hover to see other rain measurements)
** Current wind speed in m/s (hover to see current wind gust speed)